createdAt,value
2023-03-18T00:03:21.842Z,96.23
2023-03-18T00:07:21.575Z,74.32
2023-03-18T00:11:21.716Z,65.28
2023-03-18T00:15:22.203Z,41.52
2023-03-18T00:19:21.806Z,27.03
2023-03-18T00:23:21.845Z,13.66
2023-03-18T00:27:21.841Z,100.92
2023-03-18T00:31:21.998Z,20.62
2023-03-18T00:35:21.894Z,8.17
2023-03-18T00:39:21.929Z,5.75
2023-03-18T00:43:22.011Z,5.79
2023-03-18T00:47:22.030Z,5.61
2023-03-18T00:51:22.031Z,4.58
2023-03-18T00:55:22.044Z,4.02
2023-03-18T00:59:22.154Z,3.83
2023-03-18T01:03:22.303Z,3.39
2023-03-18T01:07:22.290Z,3.52
2023-03-18T01:11:22.397Z,144.43
2023-03-18T01:15:22.465Z,381.67
2023-03-18T01:19:22.582Z,526.92
2023-03-18T01:23:22.739Z,293.18
2023-03-18T01:27:22.926Z,245.02
2023-03-18T01:31:23.148Z,125.61
2023-03-18T01:35:23.064Z,352.36
2023-03-18T01:39:23.034Z,47.68
2023-03-18T01:43:22.997Z,25.21
2023-03-18T01:47:22.956Z,17.33
2023-03-18T01:51:22.926Z,11.18
2023-03-18T01:55:22.936Z,10.43
2023-03-18T01:59:22.845Z,9.30
2023-03-18T02:03:22.873Z,44.69
2023-03-18T02:07:22.805Z,117.87
2023-03-18T02:11:22.729Z,474.11
2023-03-18T02:15:22.699Z,402.29
2023-03-18T02:19:22.681Z,523.95
2023-03-18T02:23:22.661Z,718.19
2023-03-18T02:27:22.864Z,772.41
2023-03-18T02:31:23.208Z,929.79
2023-03-18T02:35:23.281Z,929.73
2023-03-18T02:39:23.396Z,775.87
2023-03-18T02:43:23.469Z,443.06
2023-03-18T02:47:23.583Z,43.31
2023-03-18T02:51:23.765Z,123.64
2023-03-18T02:55:23.975Z,205.92
2023-03-18T02:59:24.189Z,195.89
2023-03-18T03:03:24.271Z,148.48
2023-03-18T03:07:24.421Z,91.27
2023-03-18T03:11:24.561Z,60.34
2023-03-18T03:15:24.504Z,149.36
2023-03-18T03:19:24.466Z,188.50
2023-03-18T03:23:24.438Z,140.04
2023-03-18T03:27:24.396Z,22.66
2023-03-18T03:31:24.379Z,12.97
2023-03-18T03:35:24.307Z,13.00
2023-03-18T03:39:24.276Z,20.07
2023-03-18T03:43:24.266Z,22.52
2023-03-18T03:47:24.204Z,25.00
2023-03-18T03:51:24.171Z,32.27
2023-03-18T03:55:24.125Z,28.03
2023-03-18T03:59:24.105Z,41.52
2023-03-18T04:03:24.069Z,41.23
2023-03-18T04:07:24.003Z,26.41
2023-03-18T04:11:24.126Z,40.18
2023-03-18T04:15:24.150Z,23.57
2023-03-18T04:19:24.254Z,19.77
2023-03-18T04:23:24.373Z,16.69
2023-03-18T04:27:24.477Z,28.93
2023-03-18T04:31:24.639Z,23.86
2023-03-18T04:35:24.673Z,20.37
2023-03-18T04:39:25.285Z,21.02
2023-03-18T04:43:24.691Z,14.49
2023-03-18T04:47:24.778Z,12.55
2023-03-18T04:51:24.790Z,22.13
2023-03-18T04:55:24.791Z,14.21
2023-03-18T04:59:24.775Z,18.95
2023-03-18T05:03:24.819Z,14.03
2023-03-18T05:07:24.821Z,12.56
2023-03-18T05:11:24.882Z,21.76
2023-03-18T05:15:24.972Z,20.29
2023-03-18T05:19:24.985Z,25.32
2023-03-18T05:23:25.017Z,32.75
2023-03-18T05:27:25.051Z,43.33
2023-03-18T05:31:25.070Z,80.07
2023-03-18T05:35:25.065Z,96.57
2023-03-18T05:39:25.091Z,86.93
2023-03-18T05:43:25.131Z,45.79
2023-03-18T05:47:25.226Z,39.44
2023-03-18T05:51:25.248Z,30.72
2023-03-18T05:55:25.270Z,38.39
2023-03-18T05:59:25.313Z,50.21
2023-03-18T06:03:25.873Z,39.50
2023-03-18T06:07:25.789Z,27.05
2023-03-18T06:11:25.531Z,17.09
2023-03-18T06:15:25.843Z,7.89
2023-03-18T06:19:25.808Z,28.06
2023-03-18T06:23:25.572Z,45.07
2023-03-18T06:27:25.645Z,81.82
2023-03-18T06:31:25.776Z,63.45
2023-03-18T06:35:25.854Z,54.56
2023-03-18T06:39:25.935Z,77.87
2023-03-18T06:43:26.002Z,72.09
2023-03-18T06:47:26.023Z,74.53
2023-03-18T06:51:26.094Z,113.81
2023-03-18T06:55:26.164Z,163.09
2023-03-18T06:59:26.158Z,162.79
2023-03-18T07:03:26.270Z,72.70
2023-03-18T07:07:26.232Z,14.05
2023-03-18T07:11:26.269Z,8.39
2023-03-18T07:15:26.395Z,9.34
2023-03-18T07:19:27.312Z,15.21
2023-03-18T07:23:26.495Z,20.55
2023-03-18T07:27:26.456Z,42.54
2023-03-18T07:31:26.461Z,167.86
2023-03-18T07:35:26.384Z,166.40
2023-03-18T07:39:26.332Z,140.26
2023-03-18T07:43:26.329Z,165.55
2023-03-18T07:47:26.271Z,74.76
2023-03-18T07:51:26.251Z,32.91
2023-03-18T07:55:26.199Z,57.74
2023-03-18T07:59:26.381Z,37.67
2023-03-18T08:03:26.146Z,28.72
2023-03-18T08:07:26.389Z,38.01
2023-03-18T08:11:26.056Z,37.43
2023-03-18T08:15:26.014Z,30.54
2023-03-18T08:19:25.989Z,16.19
2023-03-18T08:23:25.991Z,9.76
2023-03-18T08:27:26.086Z,6.40
2023-03-18T08:31:26.207Z,4.71
2023-03-18T08:35:26.322Z,5.33
2023-03-18T08:39:26.509Z,6.29
2023-03-18T08:43:26.473Z,3.82
2023-03-18T08:47:26.439Z,2.50
2023-03-18T08:51:26.405Z,2.25
2023-03-18T08:55:26.368Z,1.68
2023-03-18T08:59:26.330Z,2.50
2023-03-18T09:03:26.338Z,2.86
2023-03-18T09:07:26.249Z,3.98
2023-03-18T09:11:26.217Z,2.59
2023-03-18T09:15:26.159Z,1.97
2023-03-18T09:19:26.131Z,0.82
2023-03-18T09:23:26.108Z,0.69
2023-03-18T09:27:26.056Z,0.41
2023-03-18T09:31:26.022Z,0.51
2023-03-18T09:35:26.199Z,0.50
2023-03-18T09:39:26.409Z,0.52
2023-03-18T09:43:26.620Z,0.55
2023-03-18T09:47:26.856Z,0.89
2023-03-18T09:51:27.014Z,1.07
2023-03-18T09:55:27.099Z,0.93
2023-03-18T09:59:27.177Z,0.86
2023-03-18T10:03:27.343Z,1.47
2023-03-18T10:07:27.262Z,0.91
2023-03-18T10:11:27.317Z,0.62
2023-03-18T10:15:27.383Z,0.48
2023-03-18T10:19:27.434Z,0.62
2023-03-18T10:23:27.485Z,0.81
2023-03-18T10:27:27.522Z,1.10
2023-03-18T10:31:27.617Z,1.31
2023-03-18T10:35:27.648Z,1.22
2023-03-18T10:39:27.715Z,1.00
2023-03-18T10:43:27.728Z,0.82
2023-03-18T10:47:28.010Z,0.60
2023-03-18T10:51:27.891Z,0.54
2023-03-18T10:55:27.954Z,0.70
2023-03-18T10:59:28.071Z,0.90
2023-03-18T11:03:28.100Z,0.50
2023-03-18T11:07:28.055Z,0.45
2023-03-18T11:11:28.022Z,0.49
2023-03-18T11:15:27.984Z,0.52
2023-03-18T11:19:27.947Z,0.83
2023-03-18T11:23:27.882Z,0.87
2023-03-18T11:27:27.858Z,0.95
2023-03-18T11:31:27.910Z,1.45
2023-03-18T11:35:27.822Z,1.76
2023-03-18T11:39:27.734Z,1.14
2023-03-18T11:43:27.718Z,4.47
2023-03-18T11:47:27.676Z,2.54
2023-03-18T11:51:27.624Z,0.83
2023-03-18T11:55:27.601Z,0.72
2023-03-18T11:59:27.564Z,1.45
2023-03-18T12:03:27.540Z,1.08
2023-03-18T12:07:27.721Z,1.16
2023-03-18T12:11:27.685Z,1.13
2023-03-18T12:15:27.640Z,0.85
2023-03-18T12:19:27.606Z,1.15
2023-03-18T12:23:27.586Z,0.90
2023-03-18T12:27:27.556Z,0.87
2023-03-18T12:31:27.533Z,1.78
2023-03-18T12:35:27.492Z,1.08
2023-03-18T12:39:29.909Z,1.29
2023-03-18T12:43:27.414Z,1.17
2023-03-18T12:47:27.362Z,0.88
2023-03-18T12:51:27.360Z,1.01
2023-03-18T12:55:27.287Z,1.00
2023-03-18T12:59:27.276Z,2.41
2023-03-18T13:03:27.303Z,1.83
2023-03-18T13:07:27.187Z,1.26
2023-03-18T13:11:27.128Z,0.86
2023-03-18T13:15:27.089Z,1.25
2023-03-18T13:19:27.044Z,0.50
2023-03-18T13:23:27.060Z,0.57
2023-03-18T13:27:27.144Z,0.75
2023-03-18T13:31:27.422Z,1.09
2023-03-18T13:35:27.505Z,0.83
2023-03-18T13:39:27.667Z,1.02
2023-03-18T13:43:27.818Z,1.21
2023-03-18T13:47:27.883Z,4.39
2023-03-18T13:51:27.934Z,2.45
2023-03-18T13:55:27.951Z,2.50
2023-03-18T13:59:27.892Z,2.45
2023-03-18T14:03:27.887Z,2.35
2023-03-18T14:07:27.809Z,1.35
2023-03-18T14:11:27.774Z,1.38
2023-03-18T14:15:27.721Z,3.90
2023-03-18T14:19:27.706Z,2.05
2023-03-18T14:23:27.672Z,3.06
2023-03-18T14:27:27.647Z,3.34
2023-03-18T14:31:27.612Z,5.84
2023-03-18T14:35:27.581Z,4.61
2023-03-18T14:39:27.554Z,3.01
2023-03-18T14:43:27.491Z,11.22
2023-03-18T14:47:38.210Z,23.92
2023-03-18T14:51:28.424Z,11.98
2023-03-18T14:55:27.360Z,7.73
2023-03-18T14:59:27.317Z,13.11
2023-03-18T15:03:27.309Z,16.64
2023-03-18T15:07:27.264Z,19.12
2023-03-18T15:11:27.186Z,18.07
2023-03-18T15:15:27.176Z,50.49
2023-03-18T15:19:27.244Z,75.27
2023-03-18T15:23:27.191Z,88.48
2023-03-18T15:27:27.209Z,136.99
2023-03-18T15:31:27.297Z,100.49
2023-03-18T15:35:27.408Z,170.61
2023-03-18T15:39:27.584Z,140.46
2023-03-18T15:43:27.811Z,82.48
2023-03-18T15:47:27.745Z,28.05
2023-03-18T15:51:27.756Z,55.82
2023-03-18T15:55:27.680Z,85.65
2023-03-18T15:59:27.657Z,59.74
2023-03-18T16:03:27.758Z,67.53
2023-03-18T16:07:27.568Z,63.41
2023-03-18T16:11:27.549Z,79.75
2023-03-18T16:15:27.481Z,106.63
2023-03-18T16:19:27.446Z,61.94
2023-03-18T16:23:27.401Z,65.14
2023-03-18T16:27:27.389Z,87.62
2023-03-18T16:31:27.432Z,77.70
2023-03-18T16:35:27.312Z,98.98
2023-03-18T16:39:27.282Z,56.92
2023-03-18T16:43:27.293Z,121.62
2023-03-18T16:47:27.457Z,188.80
2023-03-18T16:51:27.666Z,223.82
2023-03-18T16:55:27.852Z,216.69
2023-03-18T16:59:27.988Z,188.63
2023-03-18T17:03:28.037Z,108.31
2023-03-18T17:07:27.994Z,81.81
2023-03-18T17:11:28.118Z,70.84
2023-03-18T17:15:28.243Z,110.51
2023-03-18T17:19:28.493Z,178.74
2023-03-18T17:23:28.430Z,143.74
2023-03-18T17:27:28.348Z,55.82
2023-03-18T17:31:28.499Z,59.87
2023-03-18T17:35:28.326Z,67.59
2023-03-18T17:39:28.258Z,69.32
2023-03-18T17:43:28.253Z,42.54
2023-03-18T17:47:28.224Z,438.11
2023-03-18T17:51:28.118Z,176.75
2023-03-18T17:55:28.107Z,117.73
2023-03-18T17:59:28.031Z,469.17
2023-03-18T18:03:28.020Z,194.78
2023-03-18T18:07:28.014Z,279.92
2023-03-18T18:11:27.983Z,334.74
2023-03-18T18:15:28.117Z,310.98
2023-03-18T18:19:27.950Z,1000.00
2023-03-18T18:23:27.850Z,1000.00
2023-03-18T18:27:27.806Z,1000.00
2023-03-18T18:31:27.832Z,1000.00
2023-03-18T18:35:27.762Z,260.77
2023-03-18T18:39:27.686Z,350.20
2023-03-18T18:43:27.653Z,179.61
2023-03-18T18:47:27.628Z,237.93
2023-03-18T18:51:27.574Z,338.10
2023-03-18T18:55:27.526Z,393.36
2023-03-18T18:59:27.485Z,160.36
2023-03-18T19:03:27.505Z,155.99
2023-03-18T19:07:27.436Z,390.59
2023-03-18T19:11:27.409Z,1000.00
2023-03-18T19:15:27.341Z,575.25
2023-03-18T19:19:27.317Z,462.92
2023-03-18T19:23:27.269Z,217.39
2023-03-18T19:27:27.256Z,97.12
2023-03-18T19:31:27.326Z,93.66
2023-03-18T19:35:27.180Z,100.73
2023-03-18T19:39:27.206Z,74.09
2023-03-18T19:43:27.256Z,100.20
2023-03-18T19:47:27.326Z,69.85
2023-03-18T19:51:27.389Z,37.49
2023-03-18T19:55:27.462Z,41.95
2023-03-18T19:59:29.940Z,46.84
2023-03-18T20:03:28.499Z,52.73
2023-03-18T20:07:27.468Z,45.85
2023-03-18T20:11:27.431Z,36.65
2023-03-18T20:15:27.584Z,31.35
2023-03-18T20:19:27.671Z,44.86
2023-03-18T20:23:27.857Z,33.39
2023-03-18T20:27:28.033Z,45.17
2023-03-18T20:31:28.284Z,81.54
2023-03-18T20:35:28.221Z,149.88
2023-03-18T20:39:28.166Z,151.54
2023-03-18T20:43:28.115Z,121.30
2023-03-18T20:47:28.124Z,118.53
2023-03-18T20:51:28.084Z,227.17
2023-03-18T20:55:28.007Z,73.25
2023-03-18T20:59:27.988Z,98.68
2023-03-18T21:03:27.931Z,48.74
2023-03-18T21:07:27.906Z,57.99
2023-03-18T21:11:27.866Z,87.02
2023-03-18T21:15:27.836Z,149.30
2023-03-18T21:19:27.774Z,106.32
2023-03-18T21:23:27.730Z,89.14
2023-03-18T21:27:27.736Z,84.16
2023-03-18T21:31:27.831Z,121.76
2023-03-18T21:35:27.666Z,68.05
2023-03-18T21:39:27.590Z,59.36
2023-03-18T21:43:27.604Z,23.27
2023-03-18T21:47:27.621Z,88.02
2023-03-18T21:51:38.612Z,75.72
2023-03-18T21:55:28.789Z,51.77
2023-03-18T21:59:27.770Z,379.38
2023-03-18T22:03:27.797Z,77.73
2023-03-18T22:07:28.059Z,60.41
2023-03-18T22:11:27.968Z,63.13
2023-03-18T22:15:27.926Z,99.12
2023-03-18T22:19:27.872Z,268.58
2023-03-18T22:23:27.844Z,234.39
2023-03-18T22:27:27.801Z,122.48
2023-03-18T22:31:27.797Z,59.57
2023-03-18T22:35:27.803Z,51.64
2023-03-18T22:39:27.691Z,49.99
2023-03-18T22:43:27.677Z,72.45
2023-03-18T22:47:27.586Z,106.58
2023-03-18T22:51:27.563Z,160.91
2023-03-18T22:55:27.573Z,215.97
2023-03-18T22:59:27.496Z,286.33
2023-03-18T23:03:27.437Z,184.32
2023-03-18T23:07:27.431Z,271.46
2023-03-18T23:11:27.393Z,156.78
2023-03-18T23:15:27.388Z,389.29
2023-03-18T23:19:27.299Z,629.40
2023-03-18T23:23:27.326Z,721.95
2023-03-18T23:27:27.459Z,611.25
2023-03-18T23:31:27.709Z,470.34
2023-03-18T23:35:27.865Z,458.69
2023-03-18T23:39:28.059Z,533.34
2023-03-18T23:43:28.021Z,297.54
2023-03-18T23:47:27.994Z,220.99
2023-03-18T23:51:27.945Z,216.45
2023-03-18T23:55:34.332Z,225.41
2023-03-18T23:59:28.861Z,236.61
